createdAt,value
2018-12-03T00:01:34.830Z,20.60
2018-12-03T00:04:11.542Z,20.63
2018-12-03T00:06:41.712Z,23.13
2018-12-03T00:09:11.809Z,22.27
2018-12-03T00:11:41.861Z,18.67
2018-12-03T00:14:11.766Z,18.73
2018-12-03T00:16:41.715Z,20.20
2018-12-03T00:19:11.695Z,18.20
2018-12-03T00:21:57.425Z,22.87
2018-12-03T00:24:27.357Z,22.07
2018-12-03T00:26:57.762Z,26.00
2018-12-03T00:29:28.091Z,22.67
2018-12-03T00:31:58.220Z,22.30
2018-12-03T00:34:29.054Z,24.47
2018-12-03T00:36:59.309Z,25.40
2018-12-03T00:39:29.583Z,21.47
2018-12-03T00:42:07.771Z,21.93
2018-12-03T00:44:39.127Z,21.63
2018-12-03T00:47:10.067Z,21.67
2018-12-03T00:49:40.675Z,21.67
2018-12-03T00:52:10.856Z,23.07
2018-12-03T00:54:40.784Z,25.43
2018-12-03T00:57:11.697Z,23.47
2018-12-03T00:59:41.885Z,21.43
2018-12-03T01:02:30.070Z,26.30
2018-12-03T01:05:00.159Z,23.60
2018-12-03T01:07:30.306Z,23.27
2018-12-03T01:10:00.241Z,24.47
2018-12-03T01:12:30.301Z,21.73
2018-12-03T01:15:00.340Z,24.43
2018-12-03T01:17:30.369Z,22.03
2018-12-03T01:20:01.340Z,22.43
2018-12-03T01:22:36.936Z,23.77
2018-12-03T01:25:07.175Z,25.73
2018-12-03T01:27:37.228Z,22.97
2018-12-03T01:30:10.699Z,24.67
2018-12-03T01:32:41.521Z,26.30
2018-12-03T01:35:12.139Z,24.60
2018-12-03T01:37:42.048Z,22.80
2018-12-03T01:40:13.898Z,26.43
2018-12-03T01:42:45.138Z,23.63
2018-12-03T01:45:15.225Z,23.83
2018-12-03T01:47:45.435Z,25.00
2018-12-03T01:50:15.650Z,25.90
2018-12-03T01:52:45.863Z,26.03
2018-12-03T01:55:16.113Z,24.30
2018-12-03T01:57:46.566Z,23.90
2018-12-03T02:00:18.953Z,26.07
2018-12-03T02:02:49.414Z,23.90
2018-12-03T02:05:19.765Z,24.17
2018-12-03T02:07:49.728Z,23.53
2018-12-03T02:10:20.082Z,25.33
2018-12-03T06:21:27.634Z,24.60
2018-12-03T06:24:00.288Z,32.83
2018-12-03T06:26:30.075Z,30.83
2018-12-03T06:28:59.630Z,27.43
2018-12-03T06:31:31.388Z,26.23
2018-12-03T06:34:01.912Z,23.47
2018-12-03T06:36:31.763Z,26.43
2018-12-03T06:39:01.341Z,25.57
2018-12-03T06:41:31.401Z,25.77
2018-12-03T06:45:27.056Z,23.93
2018-12-03T06:47:58.535Z,25.03
2018-12-03T06:50:28.148Z,26.00
2018-12-03T06:52:57.794Z,23.93
2018-12-03T06:55:27.199Z,23.70
2018-12-03T06:57:56.641Z,23.83
2018-12-03T07:00:26.521Z,22.10
2018-12-03T07:02:56.173Z,23.00
2018-12-03T07:05:47.634Z,20.87
2018-12-03T07:08:19.764Z,19.43
2018-12-03T07:10:49.122Z,25.70
2018-12-03T07:13:22.752Z,22.17
2018-12-03T07:15:56.531Z,19.43
2018-12-03T07:18:27.829Z,21.83
2018-12-03T07:20:58.410Z,19.97
2018-12-03T07:23:28.428Z,22.77
2018-12-03T07:32:04.487Z,17.40
2018-12-03T07:34:33.969Z,17.10
2018-12-03T07:37:03.480Z,16.67
2018-12-03T07:39:34.033Z,16.00
2018-12-03T07:42:03.699Z,12.40
2018-12-03T07:44:34.241Z,14.53
2018-12-03T07:47:03.959Z,13.10
2018-12-03T07:49:35.931Z,11.07
2018-12-03T08:01:02.507Z,12.60
2018-12-03T08:03:32.252Z,10.00
2018-12-03T08:06:02.137Z,11.57
2018-12-03T08:08:31.836Z,10.73
2018-12-03T08:11:03.888Z,13.40
2018-12-03T08:13:35.104Z,10.77
2018-12-03T08:16:04.603Z,10.93
2018-12-03T08:40:44.567Z,9.10
2018-12-03T08:59:25.574Z,31.53
2018-12-03T09:15:19.880Z,9.73
2018-12-03T09:33:19.523Z,5.40
2018-12-03T09:38:41.163Z,5.60
2018-12-03T09:41:11.546Z,5.47
2018-12-03T09:43:44.025Z,5.20
2018-12-03T09:46:15.591Z,5.10
2018-12-03T09:48:45.130Z,6.03
2018-12-03T09:51:15.862Z,4.20
2018-12-03T09:53:45.329Z,5.73
2018-12-03T09:56:14.736Z,6.77
2018-12-03T09:58:44.130Z,8.53
2018-12-03T10:01:14.151Z,4.83
2018-12-03T10:03:45.436Z,5.90
2018-12-03T10:06:17.497Z,5.23
2018-12-03T10:08:46.653Z,4.53
2018-12-03T10:11:16.286Z,6.13
2018-12-03T10:13:46.639Z,5.13
2018-12-03T10:16:15.893Z,6.10
2018-12-03T10:18:49.027Z,5.70
2018-12-03T10:21:18.410Z,6.43
2018-12-03T10:23:47.922Z,7.67
2018-12-03T10:26:17.887Z,5.20
2018-12-03T10:28:47.266Z,4.93
2018-12-03T10:31:22.846Z,7.27
2018-12-03T10:33:52.761Z,6.03
2018-12-03T10:36:22.441Z,5.53
2018-12-03T10:38:52.481Z,4.37
2018-12-03T10:41:30.502Z,4.37
2018-12-03T10:44:01.747Z,5.60
2018-12-03T10:46:31.057Z,5.23
2018-12-03T10:49:07.068Z,3.00
2018-12-03T10:51:36.490Z,2.63
2018-12-03T10:54:07.254Z,3.23
2018-12-03T10:56:37.115Z,4.27
2018-12-03T10:59:06.996Z,3.00
2018-12-03T11:01:43.864Z,3.70
2018-12-03T11:04:18.921Z,2.13
2018-12-03T11:06:49.086Z,3.70
2018-12-03T11:09:18.335Z,2.43
2018-12-03T11:11:49.448Z,1.87
2018-12-03T11:14:20.220Z,1.90
2018-12-03T11:16:49.736Z,2.50
2018-12-03T11:19:18.898Z,2.10
2018-12-03T11:21:48.887Z,3.80
2018-12-03T11:24:18.292Z,2.83
2018-12-03T11:26:49.726Z,2.43
2018-12-03T11:29:20.334Z,2.53
2018-12-03T11:31:50.393Z,2.17
2018-12-03T11:34:24.038Z,3.53
2018-12-03T11:36:55.720Z,2.17
2018-12-03T11:39:42.783Z,1.70
2018-12-03T11:42:12.535Z,3.20
2018-12-03T11:44:41.795Z,1.90
2018-12-03T11:47:11.142Z,2.37
2018-12-03T11:49:40.578Z,4.47
2018-12-03T11:52:09.840Z,1.87
2018-12-03T11:54:39.166Z,17.97
2018-12-03T11:57:08.810Z,1.67
2018-12-03T11:59:38.026Z,7.13
2018-12-03T12:02:08.885Z,2.43
2018-12-03T12:04:38.374Z,1.67
2018-12-03T12:07:08.167Z,1.93
2018-12-03T12:09:37.416Z,1.73
2018-12-03T12:12:08.666Z,1.40
2018-12-03T12:14:39.128Z,1.83
2018-12-03T12:17:08.444Z,1.30
2018-12-03T12:19:37.958Z,3.37
2018-12-03T12:22:07.811Z,1.37
2018-12-03T12:24:37.232Z,4.70
2018-12-03T12:27:08.349Z,2.40
2018-12-03T12:29:38.602Z,2.77
2018-12-03T12:32:07.975Z,1.30
2018-12-03T12:34:37.186Z,0.93
2018-12-03T12:37:07.146Z,1.90
2018-12-03T12:39:36.443Z,1.33
2018-12-03T12:42:06.608Z,1.23
2018-12-03T12:44:36.469Z,5.00
2018-12-03T12:47:06.904Z,0.93
2018-12-03T12:49:36.462Z,1.23
2018-12-03T12:52:06.640Z,2.30
2018-12-03T12:54:37.991Z,1.43
2018-12-03T12:57:07.329Z,1.37
2018-12-03T12:59:36.475Z,2.97
2018-12-03T13:02:08.130Z,1.43
2018-12-03T13:04:37.366Z,3.83
2018-12-03T13:07:06.750Z,3.00
2018-12-03T13:09:35.982Z,1.13
2018-12-03T13:12:06.200Z,1.63
2018-12-03T13:14:37.060Z,1.40
2018-12-03T13:17:07.399Z,3.33
2018-12-03T13:19:37.838Z,1.33
2018-12-03T13:22:07.681Z,4.10
2018-12-03T13:24:37.004Z,1.13
2018-12-03T13:27:08.153Z,1.33
2018-12-03T13:29:37.514Z,1.77
2018-12-03T13:32:07.505Z,1.70
2018-12-03T13:34:38.262Z,1.27
2018-12-03T13:37:08.309Z,1.70
2018-12-03T13:39:37.539Z,1.60
2018-12-03T13:42:08.728Z,1.13
2018-12-03T13:44:38.151Z,2.00
2018-12-03T13:47:07.770Z,1.30
2018-12-03T13:49:37.159Z,1.70
2018-12-03T13:52:07.118Z,1.30
2018-12-03T13:54:36.522Z,2.10
2018-12-03T13:57:06.189Z,1.17
2018-12-03T13:59:35.495Z,1.17
2018-12-03T14:02:05.299Z,1.50
2018-12-03T14:04:44.419Z,2.43
2018-12-03T14:07:28.475Z,1.17
2018-12-03T14:10:17.434Z,1.60
2018-12-03T14:13:53.490Z,1.40
2018-12-03T14:16:27.262Z,3.37
2018-12-03T14:19:01.067Z,2.63
2018-12-03T14:21:43.401Z,3.17
2018-12-03T14:24:17.633Z,3.03
2018-12-03T14:26:47.044Z,2.70
2018-12-03T14:29:16.881Z,1.57
2018-12-03T14:31:46.087Z,1.77
2018-12-03T14:34:20.749Z,2.33
2018-12-03T14:36:50.029Z,2.10
2018-12-03T14:39:19.875Z,1.33
2018-12-03T14:41:49.196Z,1.30
2018-12-03T14:44:18.424Z,2.60
2018-12-03T14:46:48.225Z,1.50
2018-12-03T14:49:17.617Z,2.73
2018-12-03T14:51:47.228Z,2.67
2018-12-03T14:54:30.770Z,3.93
2018-12-03T14:57:02.084Z,2.57
2018-12-03T14:59:31.651Z,1.90
2018-12-03T15:02:01.582Z,2.23
2018-12-03T15:04:31.920Z,1.63
2018-12-03T15:07:01.201Z,1.17
2018-12-03T15:09:30.423Z,2.53
2018-12-03T15:12:01.333Z,1.70
2018-12-03T15:14:30.514Z,1.50
2018-12-03T15:16:59.819Z,1.63
2018-12-03T15:19:29.296Z,1.60
2018-12-03T15:24:54.124Z,2.13
2018-12-03T15:27:34.150Z,3.77
2018-12-03T15:30:05.781Z,2.30
2018-12-03T15:32:40.443Z,1.90
2018-12-03T15:35:12.228Z,1.43
2018-12-03T15:37:41.961Z,1.73
2018-12-03T15:40:16.776Z,10.53
2018-12-03T15:42:47.944Z,3.53
2018-12-03T15:45:21.754Z,2.77
2018-12-03T15:47:53.453Z,3.73
2018-12-03T15:50:23.127Z,1.67
2018-12-03T15:52:52.934Z,2.20
2018-12-03T15:55:23.614Z,1.63
2018-12-03T15:57:58.052Z,1.27
2018-12-03T16:00:35.275Z,1.57
2018-12-03T16:03:09.376Z,1.70
2018-12-03T16:05:42.402Z,3.47
2018-12-03T16:08:26.526Z,3.77
2018-12-03T16:11:04.326Z,2.43
2018-12-03T16:13:40.374Z,3.20
2018-12-03T16:16:10.295Z,2.40
2018-12-03T16:18:39.558Z,2.23
2018-12-03T16:21:09.718Z,1.43
2018-12-03T16:23:38.901Z,2.77
2018-12-03T16:26:08.150Z,1.60
2018-12-03T16:28:41.789Z,2.30
2018-12-03T16:31:11.725Z,2.13
2018-12-03T16:33:48.578Z,3.53
2018-12-03T16:36:19.972Z,3.07
2018-12-03T16:38:52.267Z,2.70
2018-12-03T16:41:22.455Z,2.20
2018-12-03T16:43:51.675Z,3.07
2018-12-03T16:46:20.853Z,4.60
2018-12-03T16:48:50.457Z,4.10
2018-12-03T16:51:19.615Z,4.73
2018-12-03T16:53:48.778Z,5.33
2018-12-03T16:56:17.937Z,6.37
2018-12-03T16:58:48.161Z,6.93
2018-12-03T17:01:17.482Z,2.87
2018-12-03T17:03:46.687Z,3.83
2018-12-03T17:06:16.899Z,4.93
2018-12-03T17:08:46.582Z,3.83
2018-12-03T17:11:15.717Z,2.83
2018-12-03T17:13:44.930Z,2.90
2018-12-03T17:16:14.173Z,2.60
2018-12-03T17:18:46.016Z,2.93
2018-12-03T17:21:47.630Z,4.17
2018-12-03T17:24:22.658Z,2.87
2018-12-03T17:26:52.451Z,3.63
2018-12-03T17:30:50.791Z,3.20
2018-12-03T17:33:20.025Z,3.90
2018-12-03T17:35:49.269Z,3.83
2018-12-03T17:38:18.924Z,5.00
2018-12-03T17:40:48.789Z,3.73
2018-12-03T17:43:17.912Z,3.50
2018-12-03T17:45:47.891Z,4.90
2018-12-03T17:48:17.344Z,4.00
2018-12-03T17:50:46.824Z,3.63
2018-12-03T17:53:15.954Z,3.03
2018-12-03T17:55:45.142Z,3.13
2018-12-03T17:58:14.337Z,4.10
2018-12-03T18:00:44.507Z,2.97
2018-12-03T18:03:13.790Z,6.57
2018-12-03T18:05:42.987Z,3.23
2018-12-03T18:08:12.615Z,3.67
2018-12-03T18:10:41.973Z,3.73
2018-12-03T18:13:11.335Z,3.37
2018-12-03T18:15:41.973Z,4.07
2018-12-03T18:18:11.222Z,3.40
2018-12-03T18:20:41.186Z,4.87
2018-12-03T18:23:10.421Z,4.80
2018-12-03T18:25:39.701Z,5.20
2018-12-03T18:28:09.057Z,3.83
2018-12-03T18:37:39.314Z,3.43
2018-12-03T18:40:10.158Z,5.27
2018-12-03T18:42:40.534Z,4.63
2018-12-03T18:45:10.094Z,3.10
2018-12-03T18:47:39.358Z,3.17
2018-12-03T18:50:15.602Z,3.50
2018-12-03T18:52:45.800Z,3.30
2018-12-03T18:55:14.995Z,4.57
2018-12-03T18:57:46.630Z,5.77
2018-12-03T19:00:16.029Z,3.37
2018-12-03T19:02:45.197Z,3.00
2018-12-03T19:05:14.421Z,4.10
2018-12-03T19:07:44.059Z,4.60
2018-12-03T19:10:13.220Z,4.33
2018-12-03T19:12:43.457Z,5.57
2018-12-03T19:15:12.731Z,4.13
2018-12-03T19:17:42.516Z,3.33
2018-12-03T19:20:12.054Z,2.60
2018-12-03T19:22:41.980Z,3.63
2018-12-03T19:25:11.469Z,2.67
2018-12-03T19:27:40.841Z,3.23
2018-12-03T19:30:12.541Z,3.20
2018-12-03T19:32:44.781Z,4.20
2018-12-03T19:35:32.798Z,3.43
2018-12-03T19:38:04.535Z,3.53
2018-12-03T19:40:34.619Z,4.03
2018-12-03T19:43:03.872Z,5.63
2018-12-03T19:45:33.317Z,3.07
2018-12-03T19:48:03.297Z,8.17
2018-12-03T19:50:32.527Z,3.27
2018-12-03T19:53:02.042Z,3.00
2018-12-03T19:55:32.075Z,4.27
2018-12-03T19:58:22.467Z,6.80
2018-12-03T20:00:51.643Z,7.20
2018-12-03T20:03:21.718Z,6.73
2018-12-03T20:05:50.934Z,9.13
2018-12-03T20:08:20.438Z,11.80
2018-12-03T20:10:49.558Z,15.10
2018-12-03T20:13:18.837Z,12.93
2018-12-03T20:15:48.138Z,8.83
2018-12-03T20:18:17.358Z,13.07
2018-12-03T20:20:50.389Z,10.43
2018-12-03T20:23:33.602Z,4.13
2018-12-03T20:26:26.875Z,5.30
2018-12-03T20:29:06.166Z,4.57
2018-12-03T20:31:52.730Z,4.47
2018-12-03T20:34:28.366Z,5.23
2018-12-03T20:40:00.842Z,6.10
2018-12-03T20:42:33.488Z,10.00
2018-12-03T20:46:10.895Z,10.27
2018-12-03T20:51:00.001Z,10.37
2018-12-03T20:53:38.170Z,10.43
2018-12-03T20:56:07.449Z,13.10
2018-12-03T20:58:36.689Z,14.40
2018-12-03T21:01:06.035Z,12.80
2018-12-03T21:03:35.423Z,13.90
2018-12-03T21:06:04.765Z,13.60
2018-12-03T21:08:33.997Z,15.80
2018-12-03T21:11:03.176Z,15.93
2018-12-03T21:13:33.203Z,17.47
2018-12-03T21:16:03.693Z,19.17
2018-12-03T21:18:32.905Z,20.90
2018-12-03T21:21:03.939Z,17.17
2018-12-03T21:23:33.419Z,20.10
2018-12-03T21:26:03.292Z,19.73
2018-12-03T21:28:32.483Z,19.83
2018-12-03T21:31:01.647Z,17.00
2018-12-03T21:33:30.832Z,18.87
2018-12-03T21:36:00.255Z,16.10
2018-12-03T21:38:29.451Z,14.50
2018-12-03T21:40:58.667Z,15.60
2018-12-03T21:43:27.923Z,16.97
2018-12-03T21:45:57.134Z,16.40
2018-12-03T21:49:55.454Z,13.87
2018-12-03T21:52:25.047Z,12.73
2018-12-03T21:54:54.431Z,12.10
2018-12-03T21:57:23.555Z,11.17
2018-12-03T21:59:56.895Z,12.47
2018-12-03T22:02:24.242Z,15.53
2018-12-03T22:04:53.497Z,13.23
2018-12-03T22:07:23.178Z,14.23
2018-12-03T22:09:52.411Z,15.73
2018-12-03T22:12:21.660Z,16.50
2018-12-03T22:14:50.914Z,17.90
2018-12-03T22:17:20.394Z,19.33
2018-12-03T22:19:49.606Z,20.13
2018-12-03T22:22:18.927Z,16.63
2018-12-03T22:24:48.165Z,16.13
2018-12-03T22:27:18.186Z,17.30
2018-12-03T22:29:47.401Z,15.67
2018-12-03T22:32:16.579Z,15.10
2018-12-03T22:34:45.927Z,17.60
2018-12-03T22:37:15.072Z,15.70
2018-12-03T22:39:46.485Z,15.07
2018-12-03T22:42:17.185Z,15.80
2018-12-03T22:44:46.453Z,18.67
2018-12-03T22:47:15.607Z,18.20
2018-12-03T22:49:44.812Z,15.17
2018-12-03T22:52:13.973Z,15.57
2018-12-03T22:54:43.162Z,17.50
2018-12-03T22:57:12.924Z,15.40
2018-12-03T22:59:42.175Z,14.83
2018-12-03T23:02:11.339Z,16.57
2018-12-03T23:04:40.712Z,21.30
2018-12-03T23:07:09.871Z,17.60
2018-12-03T23:09:39.139Z,17.07
2018-12-03T23:12:08.409Z,19.00
2018-12-03T23:14:37.640Z,19.70
2018-12-03T23:17:07.086Z,17.93
2018-12-03T23:19:36.603Z,21.53
2018-12-03T23:22:05.902Z,16.70
2018-12-03T23:24:35.106Z,18.67
2018-12-03T23:27:04.755Z,16.27
2018-12-03T23:29:33.974Z,16.43
2018-12-03T23:32:03.177Z,13.83
2018-12-03T23:34:32.426Z,12.73
2018-12-03T23:37:01.605Z,13.33
2018-12-03T23:39:30.721Z,14.17
2018-12-03T23:41:59.929Z,12.63
2018-12-03T23:44:29.138Z,11.53
2018-12-03T23:46:58.610Z,11.43
2018-12-03T23:49:27.873Z,9.60
2018-12-03T23:51:57.132Z,10.27
2018-12-03T23:54:26.745Z,10.37
2018-12-03T23:56:56.562Z,14.07
2018-12-03T23:59:26.978Z,18.67
